sensor_id;sensor_type;location;lat;lon;timestamp;pressure;altitude;pressure_sealevel;temperature;humidity
13553;BME280;6847;48.830;9.116;2024-02-14T00:02:28;98342.72;;;5.44;53.06
13553;BME280;6847;48.830;9.116;2024-02-14T00:05:13;98350.31;;;5.47;53.05
13553;BME280;6847;48.830;9.116;2024-02-14T00:07:58;98342.59;;;5.51;52.69
13553;BME280;6847;48.830;9.116;2024-02-14T00:10:55;98345.50;;;5.49;52.74
13553;BME280;6847;48.830;9.116;2024-02-14T00:13:41;98347.59;;;5.59;53.26
13553;BME280;6847;48.830;9.116;2024-02-14T00:16:28;98350.78;;;5.68;52.94
13553;BME280;6847;48.830;9.116;2024-02-14T00:19:14;98344.00;;;5.77;53.30
13553;BME280;6847;48.830;9.116;2024-02-14T00:21:59;98349.38;;;5.88;53.08
13553;BME280;6847;48.830;9.116;2024-02-14T00:24:48;98357.41;;;6.00;52.48
13553;BME280;6847;48.830;9.116;2024-02-14T00:27:36;98350.38;;;6.11;52.72
13553;BME280;6847;48.830;9.116;2024-02-14T00:30:23;98355.28;;;6.25;52.55
13553;BME280;6847;48.830;9.116;2024-02-14T00:33:08;98355.78;;;6.39;52.64
13553;BME280;6847;48.830;9.116;2024-02-14T00:35:55;98351.44;;;6.50;52.53
13553;BME280;6847;48.830;9.116;2024-02-14T00:38:40;98358.50;;;6.67;52.57
13553;BME280;6847;48.830;9.116;2024-02-14T00:41:25;98351.13;;;6.75;52.24
13553;BME280;6847;48.830;9.116;2024-02-14T00:44:15;98338.47;;;6.75;52.57
13553;BME280;6847;48.830;9.116;2024-02-14T00:47:00;98345.66;;;6.86;52.51
13553;BME280;6847;48.830;9.116;2024-02-14T00:49:46;98347.00;;;7.00;52.97
13553;BME280;6847;48.830;9.116;2024-02-14T00:52:31;98336.22;;;7.00;52.98
13553;BME280;6847;48.830;9.116;2024-02-14T00:55:16;98357.13;;;7.27;52.63
13553;BME280;6847;48.830;9.116;2024-02-14T00:58:02;98357.13;;;7.27;52.50
13553;BME280;6847;48.830;9.116;2024-02-14T01:00:49;98364.78;;;7.35;53.18
13553;BME280;6847;48.830;9.116;2024-02-14T01:03:35;98356.81;;;7.40;52.90
13553;BME280;6847;48.830;9.116;2024-02-14T01:06:21;98348.78;;;7.45;52.63
13553;BME280;6847;48.830;9.116;2024-02-14T01:09:09;98359.91;;;7.49;53.22
13553;BME280;6847;48.830;9.116;2024-02-14T01:11:54;98360.25;;;7.52;52.83
13553;BME280;6847;48.830;9.116;2024-02-14T01:14:42;98341.69;;;7.39;53.20
13553;BME280;6847;48.830;9.116;2024-02-14T01:17:29;98300.16;;;7.18;52.79
13553;BME280;6847;48.830;9.116;2024-02-14T01:20:14;98348.66;;;7.52;53.18
13553;BME280;6847;48.830;9.116;2024-02-14T01:23:00;98364.31;;;7.71;53.39
13553;BME280;6847;48.830;9.116;2024-02-14T01:25:45;98352.53;;;7.77;53.33
13553;BME280;6847;48.830;9.116;2024-02-14T01:28:31;98351.50;;;7.84;53.44
13553;BME280;6847;48.830;9.116;2024-02-14T01:31:18;98351.03;;;7.87;53.15
13553;BME280;6847;48.830;9.116;2024-02-14T01:34:05;98344.66;;;7.93;53.58
13553;BME280;6847;48.830;9.116;2024-02-14T01:36:50;98311.03;;;7.78;53.63
13553;BME280;6847;48.830;9.116;2024-02-14T01:39:36;98323.63;;;7.95;53.45
13553;BME280;6847;48.830;9.116;2024-02-14T01:42:21;98318.81;;;7.97;53.66
13553;BME280;6847;48.830;9.116;2024-02-14T01:45:15;98318.91;;;8.02;53.52
13553;BME280;6847;48.830;9.116;2024-02-14T01:48:06;98337.38;;;8.15;53.39
13553;BME280;6847;48.830;9.116;2024-02-14T01:50:52;98324.47;;;8.17;53.71
13553;BME280;6847;48.830;9.116;2024-02-14T01:53:38;98337.38;;;8.32;53.46
13553;BME280;6847;48.830;9.116;2024-02-14T01:56:23;98339.88;;;8.38;53.48
13553;BME280;6847;48.830;9.116;2024-02-14T01:59:09;98334.53;;;8.43;53.53
13553;BME280;6847;48.830;9.116;2024-02-14T02:01:55;98334.59;;;8.48;53.47
13553;BME280;6847;48.830;9.116;2024-02-14T02:04:40;98335.19;;;8.56;53.74
13553;BME280;6847;48.830;9.116;2024-02-14T02:07:27;98331.50;;;8.62;53.88
13553;BME280;6847;48.830;9.116;2024-02-14T02:10:12;98311.53;;;8.63;53.78
13553;BME280;6847;48.830;9.116;2024-02-14T02:12:58;98315.84;;;8.64;54.08
13553;BME280;6847;48.830;9.116;2024-02-14T02:15:44;98321.59;;;8.72;54.25
13553;BME280;6847;48.830;9.116;2024-02-14T02:18:30;98297.78;;;8.64;53.89
13553;BME280;6847;48.830;9.116;2024-02-14T02:21:15;98318.72;;;8.79;53.75
13553;BME280;6847;48.830;9.116;2024-02-14T02:24:05;98322.34;;;8.89;54.11
13553;BME280;6847;48.830;9.116;2024-02-14T02:26:50;98316.72;;;8.96;54.02
13553;BME280;6847;48.830;9.116;2024-02-14T02:29:35;98321.09;;;9.02;54.11
13553;BME280;6847;48.830;9.116;2024-02-14T02:32:22;98316.31;;;9.09;54.04
13553;BME280;6847;48.830;9.116;2024-02-14T02:35:07;98315.34;;;9.25;54.12
13553;BME280;6847;48.830;9.116;2024-02-14T02:37:53;98307.50;;;9.24;54.18
13553;BME280;6847;48.830;9.116;2024-02-14T02:40:40;98310.47;;;9.22;54.00
13553;BME280;6847;48.830;9.116;2024-02-14T02:43:26;98261.38;;;8.99;54.31
13553;BME280;6847;48.830;9.116;2024-02-14T02:46:11;98301.34;;;9.28;54.01
13553;BME280;6847;48.830;9.116;2024-02-14T02:48:57;98303.50;;;9.32;54.11
13553;BME280;6847;48.830;9.116;2024-02-14T02:51:42;98297.59;;;9.35;53.93
13553;BME280;6847;48.830;9.116;2024-02-14T02:54:28;98285.16;;;9.34;53.71
13553;BME280;6847;48.830;9.116;2024-02-14T02:57:17;98267.78;;;9.19;54.36
13553;BME280;6847;48.830;9.116;2024-02-14T03:00:06;98202.16;;;8.87;54.15
13553;BME280;6847;48.830;9.116;2024-02-14T03:02:53;98203.97;;;8.76;54.46
13553;BME280;6847;48.830;9.116;2024-02-14T03:05:38;98276.41;;;9.21;54.08
13553;BME280;6847;48.830;9.116;2024-02-14T03:08:23;98122.84;;;8.29;54.24
13553;BME280;6847;48.830;9.116;2024-02-14T03:11:09;98296.19;;;9.27;54.24
13553;BME280;6847;48.830;9.116;2024-02-14T03:13:57;98045.72;;;7.69;54.43
13553;BME280;6847;48.830;9.116;2024-02-14T03:16:47;98140.00;;;8.18;54.04
13553;BME280;6847;48.830;9.116;2024-02-14T03:19:32;98153.81;;;8.22;54.18
13553;BME280;6847;48.830;9.116;2024-02-14T03:22:25;98235.44;;;8.66;54.34
13553;BME280;6847;48.830;9.116;2024-02-14T03:25:15;98254.69;;;8.74;54.08
13553;BME280;6847;48.830;9.116;2024-02-14T03:28:05;98299.47;;;9.02;54.43
13553;BME280;6847;48.830;9.116;2024-02-14T03:30:54;98302.75;;;9.04;54.39
13553;BME280;6847;48.830;9.116;2024-02-14T03:33:42;98270.06;;;8.74;54.23
13553;BME280;6847;48.830;9.116;2024-02-14T03:36:29;98277.34;;;8.73;53.78
13553;BME280;6847;48.830;9.116;2024-02-14T03:39:14;98311.31;;;8.96;54.26
13553;BME280;6847;48.830;9.116;2024-02-14T03:42:02;98190.69;;;8.16;54.42
13553;BME280;6847;48.830;9.116;2024-02-14T03:44:51;98202.53;;;8.15;54.20
13553;BME280;6847;48.830;9.116;2024-02-14T03:47:38;98296.56;;;8.77;54.33
13553;BME280;6847;48.830;9.116;2024-02-14T03:50:23;98327.53;;;8.96;54.11
13553;BME280;6847;48.830;9.116;2024-02-14T03:53:08;98311.81;;;8.93;54.19
13553;BME280;6847;48.830;9.116;2024-02-14T03:56:00;98228.28;;;8.49;54.28
13553;BME280;6847;48.830;9.116;2024-02-14T03:58:54;98238.97;;;8.66;54.38
13553;BME280;6847;48.830;9.116;2024-02-14T04:01:46;98095.00;;;7.92;54.02
13553;BME280;6847;48.830;9.116;2024-02-14T04:04:33;98239.47;;;8.95;54.03
13553;BME280;6847;48.830;9.116;2024-02-14T04:07:19;98287.09;;;9.38;54.16
13553;BME280;6847;48.830;9.116;2024-02-14T04:10:07;98184.88;;;8.88;54.11
13553;BME280;6847;48.830;9.116;2024-02-14T04:12:54;98128.44;;;8.49;53.75
13553;BME280;6847;48.830;9.116;2024-02-14T04:15:39;98162.09;;;8.74;53.96
13553;BME280;6847;48.830;9.116;2024-02-14T04:18:24;98273.81;;;9.37;54.26
13553;BME280;6847;48.830;9.116;2024-02-14T04:21:16;98333.50;;;9.67;54.37
13553;BME280;6847;48.830;9.116;2024-02-14T04:24:02;98140.78;;;8.40;54.08
13553;BME280;6847;48.830;9.116;2024-02-14T04:26:49;98339.41;;;9.64;54.15
13553;BME280;6847;48.830;9.116;2024-02-14T04:29:38;98194.47;;;8.74;54.10
13553;BME280;6847;48.830;9.116;2024-02-14T04:32:24;98207.00;;;8.85;53.58
13553;BME280;6847;48.830;9.116;2024-02-14T04:35:12;98205.59;;;8.77;54.13
13553;BME280;6847;48.830;9.116;2024-02-14T04:38:03;98355.94;;;9.68;54.29
13553;BME280;6847;48.830;9.116;2024-02-14T04:40:52;98061.06;;;7.96;54.30
13553;BME280;6847;48.830;9.116;2024-02-14T04:43:46;98098.03;;;8.27;54.04
13553;BME280;6847;48.830;9.116;2024-02-14T04:46:32;98338.19;;;9.82;54.48
13553;BME280;6847;48.830;9.116;2024-02-14T04:49:18;98201.16;;;8.98;53.24
13553;BME280;6847;48.830;9.116;2024-02-14T04:52:05;98236.44;;;9.23;53.74
13553;BME280;6847;48.830;9.116;2024-02-14T04:54:55;98265.28;;;9.50;53.58
13553;BME280;6847;48.830;9.116;2024-02-14T04:57:41;98348.84;;;10.03;53.88
13553;BME280;6847;48.830;9.116;2024-02-14T05:00:31;98289.75;;;9.75;53.67
13553;BME280;6847;48.830;9.116;2024-02-14T05:03:16;98158.16;;;8.91;53.38
13553;BME280;6847;48.830;9.116;2024-02-14T05:06:02;98341.09;;;10.17;53.64
13553;BME280;6847;48.830;9.116;2024-02-14T05:08:50;98186.22;;;9.27;53.86
13553;BME280;6847;48.830;9.116;2024-02-14T05:11:36;98113.63;;;8.94;53.40
13553;BME280;6847;48.830;9.116;2024-02-14T05:14:22;98151.06;;;9.17;53.13
13553;BME280;6847;48.830;9.116;2024-02-14T05:17:10;98202.06;;;9.56;53.66
13553;BME280;6847;48.830;9.116;2024-02-14T05:19:56;98294.31;;;10.22;53.53
13553;BME280;6847;48.830;9.116;2024-02-14T05:22:47;98339.38;;;10.58;53.41
13553;BME280;6847;48.830;9.116;2024-02-14T05:25:38;98215.41;;;9.78;53.36
13553;BME280;6847;48.830;9.116;2024-02-14T05:28:30;98112.69;;;9.15;53.40
13553;BME280;6847;48.830;9.116;2024-02-14T05:31:16;98136.56;;;9.39;53.11
13553;BME280;6847;48.830;9.116;2024-02-14T05:34:07;98284.09;;;10.34;52.96
13553;BME280;6847;48.830;9.116;2024-02-14T05:36:52;98327.22;;;10.71;53.19
13553;BME280;6847;48.830;9.116;2024-02-14T05:39:37;98272.19;;;10.40;53.39
13553;BME280;6847;48.830;9.116;2024-02-14T05:42:25;98143.66;;;9.60;53.06
13553;BME280;6847;48.830;9.116;2024-02-14T05:45:12;98193.00;;;9.92;53.11
13553;BME280;6847;48.830;9.116;2024-02-14T05:48:16;98053.00;;;9.17;53.27
13553;BME280;6847;48.830;9.116;2024-02-14T05:51:15;98266.78;;;10.50;52.87
13553;BME280;6847;48.830;9.116;2024-02-14T05:54:14;98149.69;;;9.77;53.00
13553;BME280;6847;48.830;9.116;2024-02-14T05:57:06;98258.69;;;10.45;52.92
13553;BME280;6847;48.830;9.116;2024-02-14T05:59:58;98284.38;;;10.43;53.40
13553;BME280;6847;48.830;9.116;2024-02-14T06:02:48;98155.03;;;9.57;53.22
13553;BME280;6847;48.830;9.116;2024-02-14T06:05:34;98336.69;;;10.68;53.25
13553;BME280;6847;48.830;9.116;2024-02-14T06:08:24;98320.13;;;10.50;53.55
13553;BME280;6847;48.830;9.116;2024-02-14T06:18:24;98215.09;;;9.74;53.13
13553;BME280;6847;48.830;9.116;2024-02-14T06:21:19;98044.38;;;8.68;53.50
13553;BME280;6847;48.830;9.116;2024-02-14T06:24:07;98309.81;;;10.36;53.18
13553;BME280;6847;48.830;9.116;2024-02-14T06:27:54;98350.75;;;10.55;52.99
13553;BME280;6847;48.830;9.116;2024-02-14T06:31:01;98064.91;;;8.74;53.05
13553;BME280;6847;48.830;9.116;2024-02-14T06:34:13;98348.84;;;10.56;53.34
13553;BME280;6847;48.830;9.116;2024-02-14T06:37:00;98364.03;;;10.57;52.99
13553;BME280;6847;48.830;9.116;2024-02-14T06:39:45;98350.19;;;10.53;53.02
13553;BME280;6847;48.830;9.116;2024-02-14T06:42:32;98358.88;;;10.55;52.64
13553;BME280;6847;48.830;9.116;2024-02-14T06:45:18;98354.50;;;10.44;53.14
13553;BME280;6847;48.830;9.116;2024-02-14T06:48:03;98375.13;;;10.60;53.27
13553;BME280;6847;48.830;9.116;2024-02-14T06:50:50;98354.50;;;10.49;53.18
13553;BME280;6847;48.830;9.116;2024-02-14T06:53:35;98355.00;;;10.41;53.20
13553;BME280;6847;48.830;9.116;2024-02-14T06:56:22;98372.94;;;10.52;52.62
13553;BME280;6847;48.830;9.116;2024-02-14T06:59:07;98365.38;;;10.59;53.54
13553;BME280;6847;48.830;9.116;2024-02-14T07:01:52;98361.31;;;10.62;52.66
13553;BME280;6847;48.830;9.116;2024-02-14T07:04:39;98345.34;;;10.55;53.31
13553;BME280;6847;48.830;9.116;2024-02-14T07:07:25;98371.38;;;10.71;52.89
13553;BME280;6847;48.830;9.116;2024-02-14T07:10:11;98375.72;;;10.77;52.85
13553;BME280;6847;48.830;9.116;2024-02-14T07:12:56;98376.81;;;10.82;53.24
13553;BME280;6847;48.830;9.116;2024-02-14T07:15:42;98363.53;;;10.80;52.93
13553;BME280;6847;48.830;9.116;2024-02-14T07:18:28;98379.84;;;11.00;53.23
13553;BME280;6847;48.830;9.116;2024-02-14T07:21:14;98388.25;;;11.09;53.09
13553;BME280;6847;48.830;9.116;2024-02-14T07:24:03;98391.00;;;11.14;53.11
13553;BME280;6847;48.830;9.116;2024-02-14T07:26:48;98382.84;;;11.19;52.43
13553;BME280;6847;48.830;9.116;2024-02-14T07:29:35;98383.94;;;11.23;52.78
13553;BME280;6847;48.830;9.116;2024-02-14T07:32:20;98392.63;;;11.25;53.42
13553;BME280;6847;48.830;9.116;2024-02-14T07:35:06;98391.56;;;11.31;53.42
13553;BME280;6847;48.830;9.116;2024-02-14T07:37:51;98354.09;;;11.08;52.85
13553;BME280;6847;48.830;9.116;2024-02-14T07:40:38;98391.81;;;11.30;52.59
13553;BME280;6847;48.830;9.116;2024-02-14T07:43:23;98379.88;;;11.21;52.53
13553;BME280;6847;48.830;9.116;2024-02-14T07:46:08;98395.63;;;11.34;52.80
13553;BME280;6847;48.830;9.116;2024-02-14T07:48:55;98375.81;;;11.23;52.38
13553;BME280;6847;48.830;9.116;2024-02-14T07:51:42;98383.94;;;11.38;53.10
13553;BME280;6847;48.830;9.116;2024-02-14T07:54:27;98407.84;;;11.62;52.76
13553;BME280;6847;48.830;9.116;2024-02-14T07:57:13;98411.63;;;11.71;53.47
13553;BME280;6847;48.830;9.116;2024-02-14T07:59:59;98413.28;;;11.82;52.46
13553;BME280;6847;48.830;9.116;2024-02-14T08:02:44;98398.09;;;11.76;53.04
13553;BME280;6847;48.830;9.116;2024-02-14T08:05:29;98360.66;;;11.53;52.27
13553;BME280;6847;48.830;9.116;2024-02-14T08:08:17;98388.31;;;11.80;52.90
13553;BME280;6847;48.830;9.116;2024-02-14T08:11:12;98387.78;;;11.88;52.56
13553;BME280;6847;48.830;9.116;2024-02-14T08:14:00;98398.06;;;12.01;52.58
13553;BME280;6847;48.830;9.116;2024-02-14T08:16:45;98418.09;;;12.26;52.48
13553;BME280;6847;48.830;9.116;2024-02-14T08:19:30;98409.94;;;12.26;52.07
13553;BME280;6847;48.830;9.116;2024-02-14T08:22:17;98419.69;;;12.37;52.42
13553;BME280;6847;48.830;9.116;2024-02-14T08:25:04;98424.59;;;12.40;52.60
13553;BME280;6847;48.830;9.116;2024-02-14T08:27:50;98422.41;;;12.42;52.11
13553;BME280;6847;48.830;9.116;2024-02-14T08:30:37;98425.34;;;12.55;52.52
13553;BME280;6847;48.830;9.116;2024-02-14T08:33:24;98420.16;;;12.64;51.92
13553;BME280;6847;48.830;9.116;2024-02-14T08:36:09;98426.13;;;12.71;51.69
13553;BME280;6847;48.830;9.116;2024-02-14T08:38:54;98424.44;;;12.80;51.55
13553;BME280;6847;48.830;9.116;2024-02-14T08:41:40;98437.13;;;12.95;51.55
13553;BME280;6847;48.830;9.116;2024-02-14T08:44:27;98445.78;;;13.07;51.61
13553;BME280;6847;48.830;9.116;2024-02-14T08:47:15;98440.06;;;13.14;51.84
13553;BME280;6847;48.830;9.116;2024-02-14T08:50:00;98404.78;;;12.98;51.52
13553;BME280;6847;48.830;9.116;2024-02-14T08:52:46;98404.78;;;12.98;51.91
13553;BME280;6847;48.830;9.116;2024-02-14T08:55:31;98433.53;;;13.20;51.92
13553;BME280;6847;48.830;9.116;2024-02-14T08:58:18;98397.19;;;13.01;51.52
13553;BME280;6847;48.830;9.116;2024-02-14T09:01:06;98433.47;;;13.30;51.91
13553;BME280;6847;48.830;9.116;2024-02-14T09:03:54;98444.28;;;13.40;51.60
13553;BME280;6847;48.830;9.116;2024-02-14T09:06:40;98410.31;;;13.32;51.58
13553;BME280;6847;48.830;9.116;2024-02-14T09:09:26;98430.63;;;13.45;51.62
13553;BME280;6847;48.830;9.116;2024-02-14T09:12:11;98438.25;;;13.48;51.33
13553;BME280;6847;48.830;9.116;2024-02-14T09:15:00;98441.19;;;13.52;51.50
13553;BME280;6847;48.830;9.116;2024-02-14T09:17:49;98441.97;;;13.57;51.74
13553;BME280;6847;48.830;9.116;2024-02-14T09:20:37;98435.97;;;13.60;51.12
13553;BME280;6847;48.830;9.116;2024-02-14T09:23:22;98418.03;;;13.59;51.42
13553;BME280;6847;48.830;9.116;2024-02-14T09:26:08;98380.09;;;13.39;51.41
13553;BME280;6847;48.830;9.116;2024-02-14T09:28:54;98415.22;;;13.69;51.19
13553;BME280;6847;48.830;9.116;2024-02-14T09:31:40;98440.06;;;13.92;50.82
13553;BME280;6847;48.830;9.116;2024-02-14T09:34:31;98434.97;;;14.14;51.21
13553;BME280;6847;48.830;9.116;2024-02-14T09:37:19;98434.25;;;14.32;50.67
13553;BME280;6847;48.830;9.116;2024-02-14T09:40:06;98428.16;;;14.46;50.57
13553;BME280;6847;48.830;9.116;2024-02-14T09:43:01;98406.34;;;14.46;50.47
13553;BME280;6847;48.830;9.116;2024-02-14T09:45:50;98413.88;;;14.54;50.42
13553;BME280;6847;48.830;9.116;2024-02-14T09:48:37;98392.19;;;14.43;50.65
13553;BME280;6847;48.830;9.116;2024-02-14T09:51:23;98410.88;;;14.55;50.14
13553;BME280;6847;48.830;9.116;2024-02-14T09:54:11;98423.03;;;14.63;50.62
13553;BME280;6847;48.830;9.116;2024-02-14T09:56:58;98402.84;;;14.40;50.36
13553;BME280;6847;48.830;9.116;2024-02-14T09:59:45;98417.72;;;14.53;50.60
13553;BME280;6847;48.830;9.116;2024-02-14T10:02:32;98436.03;;;14.71;50.57
13553;BME280;6847;48.830;9.116;2024-02-14T10:05:18;98382.81;;;14.55;50.23
13553;BME280;6847;48.830;9.116;2024-02-14T10:08:04;98408.34;;;14.82;49.97
13553;BME280;6847;48.830;9.116;2024-02-14T10:10:52;98417.84;;;15.28;49.72
13553;BME280;6847;48.830;9.116;2024-02-14T10:13:40;98407.94;;;15.69;49.27
13553;BME280;6847;48.830;9.116;2024-02-14T10:16:28;98431.00;;;15.96;48.78
13553;BME280;6847;48.830;9.116;2024-02-14T10:19:15;98429.28;;;16.00;48.88
13553;BME280;6847;48.830;9.116;2024-02-14T10:22:01;98415.63;;;16.00;48.77
13553;BME280;6847;48.830;9.116;2024-02-14T10:24:51;98427.91;;;16.76;47.96
13553;BME280;6847;48.830;9.116;2024-02-14T10:27:39;98424.25;;;18.33;46.00
13553;BME280;6847;48.830;9.116;2024-02-14T10:30:25;98411.19;;;19.17;45.04
13553;BME280;6847;48.830;9.116;2024-02-14T10:33:14;98430.16;;;19.88;44.39
13553;BME280;6847;48.830;9.116;2024-02-14T10:35:59;98405.81;;;20.24;44.25
13553;BME280;6847;48.830;9.116;2024-02-14T10:38:47;98417.59;;;20.33;44.47
13553;BME280;6847;48.830;9.116;2024-02-14T10:41:35;98403.97;;;19.47;45.59
13553;BME280;6847;48.830;9.116;2024-02-14T10:44:23;98361.88;;;18.69;46.77
13553;BME280;6847;48.830;9.116;2024-02-14T10:47:14;98411.81;;;19.14;46.75
13553;BME280;6847;48.830;9.116;2024-02-14T10:50:04;98424.50;;;19.58;45.89
13553;BME280;6847;48.830;9.116;2024-02-14T10:52:53;98422.38;;;19.90;45.69
13553;BME280;6847;48.830;9.116;2024-02-14T10:55:41;98420.75;;;19.89;45.77
13553;BME280;6847;48.830;9.116;2024-02-14T10:58:30;98424.97;;;19.61;46.42
13553;BME280;6847;48.830;9.116;2024-02-14T11:01:20;98427.69;;;19.43;46.63
13553;BME280;6847;48.830;9.116;2024-02-14T11:04:09;98421.50;;;19.03;47.37
13553;BME280;6847;48.830;9.116;2024-02-14T11:06:55;98442.28;;;18.56;47.56
13553;BME280;6847;48.830;9.116;2024-02-14T11:10:05;98431.72;;;18.10;48.01
13553;BME280;6847;48.830;9.116;2024-02-14T11:12:53;98439.97;;;17.74;48.26
13553;BME280;6847;48.830;9.116;2024-02-14T11:15:40;98427.09;;;17.38;48.76
13553;BME280;6847;48.830;9.116;2024-02-14T11:18:30;98431.22;;;17.14;48.76
13553;BME280;6847;48.830;9.116;2024-02-14T11:21:19;98431.44;;;16.90;49.21
13553;BME280;6847;48.830;9.116;2024-02-14T11:24:07;98423.78;;;16.64;49.54
13553;BME280;6847;48.830;9.116;2024-02-14T11:26:58;98428.97;;;16.47;49.02
13553;BME280;6847;48.830;9.116;2024-02-14T11:29:55;98426.94;;;16.25;49.82
13553;BME280;6847;48.830;9.116;2024-02-14T11:32:43;98443.13;;;16.22;49.55
13553;BME280;6847;48.830;9.116;2024-02-14T11:35:33;98438.53;;;16.17;49.66
13553;BME280;6847;48.830;9.116;2024-02-14T11:38:20;98413.28;;;15.93;49.56
13553;BME280;6847;48.830;9.116;2024-02-14T11:41:10;98442.88;;;16.05;49.70
13553;BME280;6847;48.830;9.116;2024-02-14T11:44:00;98441.84;;;16.01;49.38
13553;BME280;6847;48.830;9.116;2024-02-14T11:46:46;98418.25;;;15.91;49.57
13553;BME280;6847;48.830;9.116;2024-02-14T11:49:32;98438.16;;;16.24;49.14
13553;BME280;6847;48.830;9.116;2024-02-14T11:52:19;98409.91;;;16.15;49.21
13553;BME280;6847;48.830;9.116;2024-02-14T11:55:06;98349.16;;;15.90;49.29
13553;BME280;6847;48.830;9.116;2024-02-14T11:57:52;98435.66;;;16.41;49.12
13553;BME280;6847;48.830;9.116;2024-02-14T12:00:40;98435.25;;;16.48;49.11
13553;BME280;6847;48.830;9.116;2024-02-14T12:03:25;98431.75;;;16.88;48.67
13553;BME280;6847;48.830;9.116;2024-02-14T12:06:13;98431.34;;;17.45;48.36
13553;BME280;6847;48.830;9.116;2024-02-14T12:09:03;98447.84;;;17.89;48.38
13553;BME280;6847;48.830;9.116;2024-02-14T12:11:52;98422.44;;;17.97;47.81
13553;BME280;6847;48.830;9.116;2024-02-14T12:14:38;98426.91;;;18.16;47.64
13553;BME280;6847;48.830;9.116;2024-02-14T12:17:24;98448.19;;;18.41;47.80
13553;BME280;6847;48.830;9.116;2024-02-14T12:20:10;98437.84;;;18.38;48.22
13553;BME280;6847;48.830;9.116;2024-02-14T12:22:58;98447.19;;;18.37;48.26
13553;BME280;6847;48.830;9.116;2024-02-14T12:25:46;98436.47;;;18.27;48.35
13553;BME280;6847;48.830;9.116;2024-02-14T12:28:32;98435.47;;;18.23;48.01
13553;BME280;6847;48.830;9.116;2024-02-14T12:31:22;98421.81;;;18.00;48.59
13553;BME280;6847;48.830;9.116;2024-02-14T12:34:10;98428.47;;;18.08;48.35
13553;BME280;6847;48.830;9.116;2024-02-14T12:37:01;98417.59;;;18.25;48.50
13553;BME280;6847;48.830;9.116;2024-02-14T12:39:49;98417.25;;;18.49;48.20
13553;BME280;6847;48.830;9.116;2024-02-14T12:42:38;98395.31;;;18.49;48.06
13553;BME280;6847;48.830;9.116;2024-02-14T12:45:23;98401.56;;;18.80;47.90
13553;BME280;6847;48.830;9.116;2024-02-14T12:48:09;98402.75;;;18.88;47.83
13553;BME280;6847;48.830;9.116;2024-02-14T12:50:56;98405.31;;;18.93;47.72
13553;BME280;6847;48.830;9.116;2024-02-14T12:53:41;98399.72;;;19.07;47.70
13553;BME280;6847;48.830;9.116;2024-02-14T12:56:27;98395.03;;;19.16;47.81
13553;BME280;6847;48.830;9.116;2024-02-14T12:59:17;98399.72;;;19.07;47.59
13553;BME280;6847;48.830;9.116;2024-02-14T13:02:03;98388.53;;;18.86;47.97
13553;BME280;6847;48.830;9.116;2024-02-14T13:04:50;98393.50;;;18.75;48.17
13553;BME280;6847;48.830;9.116;2024-02-14T13:07:39;98378.06;;;18.48;48.12
13553;BME280;6847;48.830;9.116;2024-02-14T13:10:28;98392.69;;;18.44;48.35
13553;BME280;6847;48.830;9.116;2024-02-14T13:13:15;98388.84;;;18.45;47.95
13553;BME280;6847;48.830;9.116;2024-02-14T13:16:15;98398.34;;;18.39;48.23
13553;BME280;6847;48.830;9.116;2024-02-14T13:19:00;98389.63;;;18.37;48.29
13553;BME280;6847;48.830;9.116;2024-02-14T13:21:46;98386.06;;;18.36;48.33
13553;BME280;6847;48.830;9.116;2024-02-14T13:24:37;98376.75;;;18.46;48.30
13553;BME280;6847;48.830;9.116;2024-02-14T13:27:24;98355.31;;;18.48;48.00
13553;BME280;6847;48.830;9.116;2024-02-14T13:30:10;98377.38;;;18.82;47.92
13553;BME280;6847;48.830;9.116;2024-02-14T13:32:57;98317.06;;;19.00;47.46
13553;BME280;6847;48.830;9.116;2024-02-14T13:35:43;98382.31;;;19.72;46.84
13553;BME280;6847;48.830;9.116;2024-02-14T13:38:29;98381.03;;;19.78;46.90
13553;BME280;6847;48.830;9.116;2024-02-14T13:41:14;98377.00;;;19.67;47.19
13553;BME280;6847;48.830;9.116;2024-02-14T13:44:00;98370.66;;;19.40;47.27
13553;BME280;6847;48.830;9.116;2024-02-14T13:46:46;98364.03;;;19.41;47.37
13553;BME280;6847;48.830;9.116;2024-02-14T13:49:36;98376.34;;;19.61;47.09
13553;BME280;6847;48.830;9.116;2024-02-14T13:52:21;98387.16;;;19.75;46.94
13553;BME280;6847;48.830;9.116;2024-02-14T13:55:07;98344.38;;;19.56;47.02
13553;BME280;6847;48.830;9.116;2024-02-14T13:57:56;98386.97;;;19.80;47.03
13553;BME280;6847;48.830;9.116;2024-02-14T14:00:41;98390.06;;;19.70;47.04
13553;BME280;6847;48.830;9.116;2024-02-14T14:03:28;98329.97;;;19.25;47.22
13553;BME280;6847;48.830;9.116;2024-02-14T14:06:18;98386.50;;;19.43;47.23
13553;BME280;6847;48.830;9.116;2024-02-14T14:09:04;98319.94;;;18.77;47.35
13553;BME280;6847;48.830;9.116;2024-02-14T14:11:54;98386.59;;;18.87;47.54
13553;BME280;6847;48.830;9.116;2024-02-14T14:14:42;98386.88;;;18.68;47.65
13553;BME280;6847;48.830;9.116;2024-02-14T14:17:27;98395.31;;;18.49;47.78
13553;BME280;6847;48.830;9.116;2024-02-14T14:20:13;98392.34;;;18.37;47.73
13553;BME280;6847;48.830;9.116;2024-02-14T14:22:59;98328.44;;;17.88;47.84
13553;BME280;6847;48.830;9.116;2024-02-14T14:25:47;98396.56;;;18.12;48.05
13553;BME280;6847;48.830;9.116;2024-02-14T14:28:33;98391.69;;;18.00;48.09
13553;BME280;6847;48.830;9.116;2024-02-14T14:31:19;98379.69;;;17.88;48.36
13553;BME280;6847;48.830;9.116;2024-02-14T14:34:04;98385.41;;;17.78;48.17
13553;BME280;6847;48.830;9.116;2024-02-14T14:36:48;98387.94;;;17.74;48.36
13553;BME280;6847;48.830;9.116;2024-02-14T14:39:35;98386.94;;;17.48;48.22
13553;BME280;6847;48.830;9.116;2024-02-14T14:42:23;98394.47;;;17.42;48.36
13553;BME280;6847;48.830;9.116;2024-02-14T14:45:08;98394.75;;;17.41;48.75
13553;BME280;6847;48.830;9.116;2024-02-14T14:47:53;98377.25;;;17.28;48.28
13553;BME280;6847;48.830;9.116;2024-02-14T14:50:39;98385.16;;;17.29;48.41
13553;BME280;6847;48.830;9.116;2024-02-14T14:53:25;98372.84;;;17.18;48.57
13553;BME280;6847;48.830;9.116;2024-02-14T14:56:11;98384.56;;;17.32;48.74
13553;BME280;6847;48.830;9.116;2024-02-14T14:58:56;98379.31;;;17.22;48.63
13553;BME280;6847;48.830;9.116;2024-02-14T15:01:43;98389.44;;;17.22;48.60
13553;BME280;6847;48.830;9.116;2024-02-14T15:04:37;98382.88;;;17.23;48.35
13553;BME280;6847;48.830;9.116;2024-02-14T15:07:24;98363.94;;;17.13;48.61
13553;BME280;6847;48.830;9.116;2024-02-14T15:10:09;98367.78;;;17.12;49.10
13553;BME280;6847;48.830;9.116;2024-02-14T15:12:56;98381.78;;;17.10;49.19